createdAt,value
2023-05-16T00:00:00.000Z,81.8
2023-05-16T00:15:00.000Z,82.64
2023-05-16T00:30:00.000Z,82.7
2023-05-16T00:45:00.000Z,82.52
2023-05-16T01:00:00.000Z,82.65
2023-05-16T01:15:00.000Z,82.79
2023-05-16T01:30:00.000Z,82.87
2023-05-16T01:45:00.000Z,83.12
2023-05-16T02:00:00.000Z,83.31
2023-05-16T02:15:00.000Z,83.25
2023-05-16T02:30:00.000Z,83.27
2023-05-16T02:45:00.000Z,83.66
2023-05-16T03:00:00.000Z,83.76
2023-05-16T03:15:00.000Z,83.3
2023-05-16T03:30:00.000Z,82.94
2023-05-16T03:45:00.000Z,83.05
2023-05-16T04:00:00.000Z,83.34
2023-05-16T04:15:00.000Z,83.55
2023-05-16T04:30:00.000Z,82.47
2023-05-16T04:45:00.000Z,82.95
2023-05-16T05:00:00.000Z,82.38
2023-05-16T05:15:00.000Z,81.06
2023-05-16T05:30:00.000Z,79.31
2023-05-16T05:45:00.000Z,78.11
2023-05-16T06:00:00.000Z,77.05
2023-05-16T06:15:00.000Z,76.42
2023-05-16T06:30:00.000Z,76.01
2023-05-16T06:45:00.000Z,76.69
2023-05-16T07:00:00.000Z,75.94
2023-05-16T07:15:00.000Z,75.31
2023-05-16T07:30:00.000Z,73.44
2023-05-16T07:45:00.000Z,70.08
2023-05-16T08:00:00.000Z,68.17
2023-05-16T08:15:00.000Z,69.07
2023-05-16T08:30:00.000Z,69.53
2023-05-16T08:45:00.000Z,69.06
2023-05-16T09:00:00.000Z,69.98
2023-05-16T09:15:00.000Z,70.45
2023-05-16T09:30:00.000Z,71.38
2023-05-16T09:45:00.000Z,71.98
2023-05-16T10:00:00.000Z,71.56
2023-05-16T10:15:00.000Z,71.35
2023-05-16T10:30:00.000Z,71.95
2023-05-16T10:45:00.000Z,76.56
2023-05-16T11:00:00.000Z,79.34
2023-05-16T11:15:00.000Z,80.28
2023-05-16T11:30:00.000Z,80.14
2023-05-16T11:45:00.000Z,82.09
2023-05-16T12:00:00.000Z,81.69
2023-05-16T12:15:00.000Z,81.22
2023-05-16T12:30:00.000Z,80.22
2023-05-16T12:45:00.000Z,78.53
2023-05-16T13:00:00.000Z,78.08
2023-05-16T13:15:00.000Z,78.18
2023-05-16T13:30:00.000Z,79.2
2023-05-16T13:45:00.000Z,79.31
2023-05-16T14:00:00.000Z,81.66
2023-05-16T14:15:00.000Z,82.41
2023-05-16T14:30:00.000Z,83.25
2023-05-16T14:45:00.000Z,83.22
2023-05-16T15:00:00.000Z,84.13
2023-05-16T15:15:00.000Z,84.57
2023-05-16T15:30:00.000Z,84.4
2023-05-16T15:45:00.000Z,84.18
2023-05-16T16:00:00.000Z,84.17
2023-05-16T16:15:00.000Z,83.91
2023-05-16T16:30:00.000Z,83.11
2023-05-16T16:45:00.000Z,83.43
2023-05-16T17:00:00.000Z,84.56
2023-05-16T17:15:00.000Z,85.07
2023-05-16T17:30:00.000Z,85.49
2023-05-16T17:45:00.000Z,85.51
2023-05-16T18:00:00.000Z,85.67
2023-05-16T18:15:00.000Z,85.93
2023-05-16T18:30:00.000Z,86.22
2023-05-16T18:45:00.000Z,86.46
2023-05-16T19:00:00.000Z,86.69
2023-05-16T19:15:00.000Z,86.67
2023-05-16T19:30:00.000Z,86.72
2023-05-16T19:45:00.000Z,86.78
2023-05-16T20:00:00.000Z,86.82
2023-05-16T20:15:00.000Z,86.5
2023-05-16T20:30:00.000Z,86.86
2023-05-16T20:45:00.000Z,86.94
2023-05-16T21:00:00.000Z,87.19
2023-05-16T21:15:00.000Z,86.79
2023-05-16T21:30:00.000Z,86.9
2023-05-16T21:45:00.000Z,86.89
2023-05-16T22:00:00.000Z,87.02
2023-05-16T22:15:00.000Z,87.25
2023-05-16T22:30:00.000Z,87.23
2023-05-16T22:45:00.000Z,87.16
2023-05-16T23:00:00.000Z,87.21
2023-05-16T23:15:00.000Z,87.19
2023-05-16T23:30:00.000Z,87.03
2023-05-16T23:45:00.000Z,86.89
